WEATHER DATA

YESTERDAY
Time Temp. Dewp. Hum. Wind dir Wind speed Wind gust Bar. 1h Prec. 24h Prec.
00:01 25.7 20.9 75 135 0.3 1.7 1003.3 0.0000 0.0000
00:11 25.6 20.8 75 115 0.8 2.5 1003.1 0.0000 0.0000
00:22 25.6 20.8 75 90 0.8 2.8 1003 0.0000 0.0000
00:31 25.5 21 76 75 0.8 1.9 1002.9 0.0000 0.0000
00:41 25.4 20.9 76 90 1.1 4.4 1002.8 0.0000 0.0000
00:52 25.4 20.9 76 90 0.8 2.8 1002.7 0.0000 0.0000
01:02 25.3 20.8 76 106 1.1 4.2 1002.9 0.0000 0.0000
01:12 25.2 20.9 77 110 1.1 2.5 1003 0.0000 0.0000
01:22 25.1 21 78 98 1.1 2.8 1003.1 0.0000 0.0000
01:32 25.1 21.2 79 90 1.7 3.3 1002.8 0.0000 0.0000
01:42 25 21.1 79 90 1.1 2.8 1002.5 0.0000 0.0000
01:52 24.9 21 79 79 0.8 3.6 1002.1 0.0000 0.0000
02:02 24.8 20.9 79 107 1.7 3.6 1002.4 0.0000 0.0000
02:13 24.8 21.1 80 135 0.3 0.8 1002.5 0.0000 0.0000
02:22 24.7 21.2 81 221 4.2 14.4 1004.2 0.0000 0.0000
02:33 24 21.7 87 242 6.7 13.1 1004.9 0.3030 0.3000
02:43 22.9 21.9 94 255 5.8 10.3 1005.6 0.8080 0.8000
02:53 22.3 21.5 95 262 3.6 7.5 1005.1 1.1110 1.1000
03:03 21.9 21.4 97 277 2.5 4.4 1005.3 1.3130 1.3000
03:13 21.7 21.2 97 294 1.7 2.8 1004.6 1.4140 1.4000
03:24 21.5 21 97 225 0.8 2.5 1004 1.3130 1.6000
03:34 21.2 20.7 97 15 1.7 3.6 1003 1.0100 1.8000
03:44 21.1 20.4 96 8 1.9 5.8 1003.3 0.9090 2.0000
03:54 21.1 20.4 96 327 1.1 2.8 1002.9 1.0100 2.2000
04:04 21.1 20.4 96 316 1.1 2.5 1003 0.9090 2.3000
04:14 21.2 20.4 95 308 0.8 2.5 1002.8 0.9090 2.4000
04:24 21.3 20.5 95 347 0.8 2.8 1002.4 0.8080 2.5000
04:35 21.3 20.5 95 54 1.1 4.4 1002.9 0.8080 2.7000
04:45 21.2 20.5 96 72 1.9 4.4 1002.3 0.7070 2.8000
04:54 21.2 20.5 96 51 1.7 3.3 1002.1 0.7070 3.0000
05:04 21.1 20.4 96 328 0.8 2.5 1002.3 0.8080 3.1000
05:14 21.1 20.3 95 229 0.8 1.9 1002.5 0.7070 3.2000
05:24 21.2 20.4 95 260 0.8 1.9 1002.6 0.7070 3.3000
05:30 21.2 20.4 95 270 0.8 1.7 1003 0.5050 3.5000
06:31 21.2 20.5 96 253 0.8 1.7 1003.1 0.3030 3.7000
06:40 21.1 20.4 96 270 0.3 1.1 1003.2 0.4040 3.8000
06:50 21 20.3 96 232 0.8 1.9 1003.1 0.3030 3.8000
06:53 21 20.3 96 228 1.7 5 1003.1 0.4040 3.9000
07:04 20.8 20.1 96 233 3.3 6.7 1003.1 0.3030 3.9000
07:14 20.8 20.1 96 232 2.8 4.4 1003.1 0.4040 4.0000
07:24 20.7 20 96 239 3.6 6.7 1003.1 0.4040 4.1000
07:35 20.7 20 96 234 5.3 7.5 1003.1 0.3030 4.1000
07:53 20.7 20 96 236 6.7 12.8 1003.2 0.4040 4.2000
08:03 20.7 20 96 233 5.3 11.1 1003.3 0.4040 4.3000
08:13 20.7 20 96 221 1.7 4.2 1003.5 0.4040 4.3000
08:23 20.8 20.1 96 228 2.8 6.9 1003.8 0.4040 4.4000
08:34 20.9 20.2 96 228 2.5 7.5 1003.9 0.3030 4.4000
08:43 21 20.3 96 220 1.7 4.4 1003.9 0.4040 4.5000
08:52 21 20.3 96 228 3.3 6.1 1003.8 0.3030 4.5000
09:03 21.2 20.5 96 221 1.7 5 1003.8 0.2020 4.5000
09:14 21.3 20.6 96 219 1.9 6.1 1003.9 0.1010 4.5000
09:24 21.4 20.7 96 222 1.9 8.3 1003.8 0.1010 4.5000
09:33 21.5 20.8 96 233 1.9 5.3 1003.8 0.0000 4.5000
09:38 21.6 20.9 96 218 1.7 5 1003.9 0.0000 4.5000
10:09 22.1 21.6 97 226 1.9 4.4 1004 0.0000 4.5000
10:16 22.1 21.6 97 223 2.5 5 1004.1 0.0000 4.5000
10:29 22.3 21.8 97 223 1.7 5.3 1004.1 0.0000 4.5000
10:39 22.4 21.9 97 216 2.8 6.7 1004.1 0.0000 4.5000
10:50 22.6 22.1 97 209 1.7 5.3 1004.2 0.0000 4.5000
11:00 22.7 22.2 97 181 1.9 5.3 1004.2 0.0000 4.5000
11:10 22.8 22.3 97 218 1.7 5.3 1004.3 0.0000 4.5000
11:15 22.9 22.4 97 208 2.5 7.5 1004.3 0.0000 4.5000
11:25 23 22.5 97 218 2.8 7.5 1004.4 0.0000 4.5000
11:36 23.1 22.4 96 216 1.7 6.7 1004.4 0.0000 4.5000
11:46 23.2 22.4 95 220 2.5 7.5 1004.5 0.0000 4.5000
11:56 23.3 22.5 95 222 2.5 6.7 1004.4 0.0000 4.5000
12:05 23.4 22.4 94 212 0.8 3.6 1004.4 0.0000 4.5000
12:16 23.5 22.5 94 218 1.1 4.4 1004.4 0.0000 4.5000
12:26 23.6 22.4 93 220 1.1 4.2 1004.3 0.0000 4.5000
12:36 23.7 22.5 93 211 1.7 5 1004.3 0.0000 4.5000
12:46 23.8 22.4 92 209 1.1 3.3 1004.2 0.0000 4.5000
12:56 23.9 22.2 90 218 1.1 5.8 1004.1 0.0000 4.5000
13:06 24.1 22.4 90 219 1.9 4.4 1004.1 0.0000 4.5000
13:15 24.2 22.5 90 225 1.1 3.3 1004.1 0.0000 4.5000
13:27 24.3 22.6 90 214 1.7 4.4 1004.2 0.0000 4.5000
13:37 24.5 22.4 88 188 1.1 2.8 1004.1 0.0000 4.5000
13:47 24.6 22.5 88 205 1.1 5.3 1004.1 0.0000 4.5000
13:57 24.7 22.8 89 209 1.1 3.3 1004.1 0.0000 4.5000
14:07 24.9 22.6 87 209 1.1 3.6 1004.1 0.0000 4.5000
14:17 24.9 22.8 88 226 1.7 5 1004.1 0.0000 4.5000
14:27 25.1 22.4 85 216 1.7 3.6 1004 0.0000 4.5000
14:38 25.3 22.8 86 228 1.7 4.4 1004 0.0000 4.5000
14:48 25.3 23 87 218 1.1 5 1004 0.0000 4.5000
14:58 25.4 22.9 86 219 1.1 2.8 1004 0.0000 4.5000
15:08 25.5 23 86 194 0.8 3.6 1004 0.0000 4.5000
15:18 25.6 23.1 86 213 1.1 3.3 1004 0.0000 4.5000
15:28 25.7 23 85 217 1.7 5 1004 0.0000 4.5000
15:38 25.7 22.8 84 213 1.1 3.6 1003.9 0.0000 4.5000
15:49 25.8 22.9 84 219 1.7 4.4 1003.9 0.0000 4.5000
15:58 25.9 22.6 82 223 1.9 7.8 1003.9 0.0000 4.5000
16:19 26.1 22.6 81 228 1.7 5 1003.9 0.0000 4.5000
16:38 26.2 22.3 79 217 1.1 3.6 1004.1 0.0000 4.5000
16:40 26.3 22.6 80 210 1.7 3.6 1004.3 0.0000 4.5000
16:57 26.4 22.9 81 177 0.8 2.5 1004.3 0.0000 4.5000
17:16 26.5 22.6 79 221 1.1 3.6 1004.4 0.0000 4.5000
18:41 26.5 21.9 76 216 0.8 4.4 1004.4 0.0000 4.5000
18:43 26.5 21.9 76 214 1.1 3.3 1004.4 0.0000 4.5000
19:11 26.4 22 77 127 0.3 1.9 1004.6 0.0000 4.5000
19:21 26.4 21.8 76 168 0.3 1.7 1004.7 0.0000 4.5000
19:31 26.4 21.6 75 216 0.3 1.7 1004.8 0.0000 4.5000
19:42 26.4 21.4 74 161 0.3 1.9 1004.8 0.0000 4.5000
19:46 26.4 21.4 74 190 0.8 1.9 1004.9 0.0000 4.5000
19:56 26.4 20.3 69 231 0.8 2.5 1004.9 0.0000 4.5000
20:06 26.3 19.9 68 216 0.8 1.7 1005 0.0000 4.5000
20:17 26.3 20.8 72 125 0.3 1.7 1005 0.0000 4.5000
20:26 26.2 21.2 74 149 0.3 1.1 1005.1 0.0000 4.5000
20:36 26.1 21.8 77 90 0.3 1.1 1005.2 0.0000 4.5000
20:47 25.9 21.6 77 123 0.3 0.8 1005.3 0.0000 4.5000
20:57 25.8 21.9 79 90 0.3 1.1 1005.6 0.0000 4.5000
21:07 25.6 21.7 79 90 0.3 0.8 1005.7 0.0000 4.5000
21:27 25.3 21.4 79 90 0.3 1.1 1005.9 0.0000 4.5000
21:37 25.2 21.7 81 201 0.3 0.8 1005.7 0.0000 4.5000
21:47 25 21.5 81 0 0.8 1005.8 0.0000 4.5000
21:58 24.8 20.7 78 0 0.3 1005.6 0.0000 4.5000
22:08 24.6 20.5 78 0 0.8 1005.5 0.0000 4.5000
22:18 24.4 20.1 77 168 0.3 0.8 1005.4 0.0000 4.5000
22:27 24.2 19.9 77 158 0.3 1.1 1005.4 0.0000 4.5000
22:38 24 19.7 77 142 0.3 0.8 1005.4 0.0000 4.5000
22:48 23.9 20.2 80 144 0.3 0.8 1005.5 0.0000 4.5000
22:58 23.7 20.4 82 180 0.3 1.1 1005.6 0.0000 4.5000
23:08 23.6 20.5 83 155 0.3 1.1 1005.7 0.0000 4.5000
23:18 23.5 20.8 85 188 0.3 0.8 1005.8 0.0000 4.5000
23:28 23.4 20.7 85 127 0.3 1.7 1006.2 0.0000 4.5000
23:38 23 19.4 80 205 1.1 3.3 1006.3 0.0000 4.5000
23:49 22.6 19 80 167 0.8 3.3 1006.4 0.0000 4.5000

DAY STATISTIC

2021-06-21
TEMPERATURE
AVERAGE
23.7
HIGH
26.5
17:16
LOW
20.7
07:24
PRESSURE
AVERAGE
1004.1
HIGH
1006.4
23:49
LOW
1002.1
01:52
DEWPOINT
AVERAGE
21.3
HIGH
23.1
15:18
LOW
19.0
23:49
HUMIDITY
AVERAGE
87
HIGH
97
03:03
LOW
68
20:06
WIND SPEED
AVERAGE
1.5
HIGH
6.7
02:33
WIND GUST
AVERAGE
3.9
HIGH
14.4
02:22
WIND DIRECTION
PREVAILING
SW
52%
N
2.4
NE
1.6
E
12.8
SE
8.8
S
10.4
SW
52.0
W
5.6
NW
4.0
PRECIPITATION
RAIN HOUR
1.4
RAIN DAY
4.5
TEMPERATURE (°C)
LOW
20.7
HIGH
26.5
AVERAGE
23.7
PRESSURE (hpa)
LOW
1002.1
HIGH
1006.4
AVERAGE
1004.1
DEVICE